sensor_id;sensor_type;location;lat;lon;timestamp;P1;durP1;ratioP1;P2;durP2;ratioP2
64018;SDS011;66942;52.138;5.216;2024-01-07T00:00:54;18.7;;;17.5;;
64018;SDS011;66942;52.138;5.216;2024-01-07T00:02:30;18.11;;;16.9;;
64018;SDS011;66942;52.138;5.216;2024-01-07T00:04:06;19.0;;;17.8;;
64018;SDS011;66942;52.138;5.216;2024-01-07T00:05:43;19.3;;;18.0;;
64018;SDS011;66942;52.138;5.216;2024-01-07T00:08:56;19.0;;;17.8;;
64018;SDS011;66942;52.138;5.216;2024-01-07T00:10:32;19.5;;;18.3;;
64018;SDS011;66942;52.138;5.216;2024-01-07T00:12:08;19.8;;;18.5;;
64018;SDS011;66942;52.138;5.216;2024-01-07T00:15:23;20.7;;;19.3;;
64018;SDS011;66942;52.138;5.216;2024-01-07T00:16:59;19.91;;;18.61;;
64018;SDS011;66942;52.138;5.216;2024-01-07T00:18:35;21.3;;;19.8;;
64018;SDS011;66942;52.138;5.216;2024-01-07T00:21:48;22.4;;;20.9;;
64018;SDS011;66942;52.138;5.216;2024-01-07T00:23:25;20.41;;;19.11;;
64018;SDS011;66942;52.138;5.216;2024-01-07T00:25:01;21.8;;;20.3;;
64018;SDS011;66942;52.138;5.216;2024-01-07T00:26:38;21.0;;;19.5;;
64018;SDS011;66942;52.138;5.216;2024-01-07T00:29:51;21.7;;;20.2;;
64018;SDS011;66942;52.138;5.216;2024-01-07T00:31:27;21.2;;;19.7;;
64018;SDS011;66942;52.138;5.216;2024-01-07T00:33:06;23.0;;;21.3;;
64018;SDS011;66942;52.138;5.216;2024-01-07T00:36:18;22.9;;;21.2;;
64018;SDS011;66942;52.138;5.216;2024-01-07T00:37:54;22.7;;;21.0;;
64018;SDS011;66942;52.138;5.216;2024-01-07T00:39:30;22.2;;;20.7;;
64018;SDS011;66942;52.138;5.216;2024-01-07T00:42:42;23.0;;;21.4;;
64018;SDS011;66942;52.138;5.216;2024-01-07T00:44:18;24.5;;;22.6;;
64018;SDS011;66942;52.138;5.216;2024-01-07T00:45:54;23.5;;;21.8;;
64018;SDS011;66942;52.138;5.216;2024-01-07T00:49:07;27.0;;;25.0;;
64018;SDS011;66942;52.138;5.216;2024-01-07T00:50:43;22.8;;;21.2;;
64018;SDS011;66942;52.138;5.216;2024-01-07T00:52:19;24.9;;;23.1;;
64018;SDS011;66942;52.138;5.216;2024-01-07T00:53:55;24.9;;;23.1;;
64018;SDS011;66942;52.138;5.216;2024-01-07T00:57:07;25.6;;;23.7;;
64018;SDS011;66942;52.138;5.216;2024-01-07T00:58:46;23.0;;;21.4;;
64018;SDS011;66942;52.138;5.216;2024-01-07T01:00:23;25.2;;;23.2;;
64018;SDS011;66942;52.138;5.216;2024-01-07T01:03:35;24.2;;;22.4;;
64018;SDS011;66942;52.138;5.216;2024-01-07T01:05:11;25.1;;;23.4;;
64018;SDS011;66942;52.138;5.216;2024-01-07T01:06:47;24.6;;;22.8;;
64018;SDS011;66942;52.138;5.216;2024-01-07T01:09:59;27.0;;;25.0;;
64018;SDS011;66942;52.138;5.216;2024-01-07T01:11:36;22.9;;;21.4;;
64018;SDS011;66942;52.138;5.216;2024-01-07T01:13:13;23.2;;;21.6;;
64018;SDS011;66942;52.138;5.216;2024-01-07T01:14:49;23.5;;;21.9;;
64018;SDS011;66942;52.138;5.216;2024-01-07T01:18:02;23.2;;;21.7;;
64018;SDS011;66942;52.138;5.216;2024-01-07T01:19:39;22.2;;;20.6;;
64018;SDS011;66942;52.138;5.216;2024-01-07T01:21:16;26.2;;;24.3;;
64018;SDS011;66942;52.138;5.216;2024-01-07T01:24:28;22.8;;;21.2;;
64018;SDS011;66942;52.138;5.216;2024-01-07T01:26:05;22.6;;;21.0;;
64018;SDS011;66942;52.138;5.216;2024-01-07T01:27:41;21.8;;;20.3;;
64018;SDS011;66942;52.138;5.216;2024-01-07T01:30:53;20.9;;;19.5;;
64018;SDS011;66942;52.138;5.216;2024-01-07T01:32:29;21.8;;;20.3;;
64018;SDS011;66942;52.138;5.216;2024-01-07T01:34:05;22.3;;;20.8;;
64018;SDS011;66942;52.138;5.216;2024-01-07T01:35:42;20.5;;;19.11;;
64018;SDS011;66942;52.138;5.216;2024-01-07T01:38:54;22.0;;;20.5;;
64018;SDS011;66942;52.138;5.216;2024-01-07T01:40:32;24.1;;;22.3;;
64018;SDS011;66942;52.138;5.216;2024-01-07T01:42:08;22.1;;;20.5;;
64018;SDS011;66942;52.138;5.216;2024-01-07T01:45:20;20.9;;;19.5;;
64018;SDS011;66942;52.138;5.216;2024-01-07T01:46:56;19.11;;;17.8;;
64018;SDS011;66942;52.138;5.216;2024-01-07T01:48:33;20.8;;;19.41;;
64018;SDS011;66942;52.138;5.216;2024-01-07T01:51:48;22.2;;;20.6;;
64018;SDS011;66942;52.138;5.216;2024-01-07T01:53:26;21.3;;;19.91;;
64018;SDS011;66942;52.138;5.216;2024-01-07T01:55:03;22.3;;;20.8;;
64018;SDS011;66942;52.138;5.216;2024-01-07T01:56:40;20.5;;;19.11;;
64018;SDS011;66942;52.138;5.216;2024-01-07T01:59:54;21.0;;;19.61;;
64018;SDS011;66942;52.138;5.216;2024-01-07T02:01:31;21.3;;;19.91;;
64018;SDS011;66942;52.138;5.216;2024-01-07T02:03:07;21.5;;;20.11;;
64018;SDS011;66942;52.138;5.216;2024-01-07T02:06:20;23.9;;;22.0;;
64018;SDS011;66942;52.138;5.216;2024-01-07T02:07:58;25.2;;;23.2;;
64018;SDS011;66942;52.138;5.216;2024-01-07T02:09:35;22.1;;;20.5;;
64018;SDS011;66942;52.138;5.216;2024-01-07T02:12:52;21.5;;;20.0;;
64018;SDS011;66942;52.138;5.216;2024-01-07T02:14:28;23.5;;;21.8;;
64018;SDS011;66942;52.138;5.216;2024-01-07T02:16:04;23.5;;;21.7;;
64018;SDS011;66942;52.138;5.216;2024-01-07T02:17:41;24.2;;;22.4;;
64018;SDS011;66942;52.138;5.216;2024-01-07T02:20:58;25.5;;;23.5;;
64018;SDS011;66942;52.138;5.216;2024-01-07T02:22:34;26.9;;;24.7;;
64018;SDS011;66942;52.138;5.216;2024-01-07T02:24:14;25.6;;;23.6;;
64018;SDS011;66942;52.138;5.216;2024-01-07T02:27:27;26.3;;;24.2;;
64018;SDS011;66942;52.138;5.216;2024-01-07T02:29:03;27.9;;;25.6;;
64018;SDS011;66942;52.138;5.216;2024-01-07T02:30:39;26.0;;;23.9;;
64018;SDS011;66942;52.138;5.216;2024-01-07T02:32:15;25.9;;;23.8;;
64018;SDS011;66942;52.138;5.216;2024-01-07T02:35:28;28.3;;;26.0;;
64018;SDS011;66942;52.138;5.216;2024-01-07T02:37:04;32.1;;;29.2;;
64018;SDS011;66942;52.138;5.216;2024-01-07T02:38:40;28.9;;;26.5;;
64018;SDS011;66942;52.138;5.216;2024-01-07T02:41:52;30.7;;;28.2;;
64018;SDS011;66942;52.138;5.216;2024-01-07T02:43:28;29.5;;;27.2;;
64018;SDS011;66942;52.138;5.216;2024-01-07T02:45:05;29.4;;;26.9;;
64018;SDS011;66942;52.138;5.216;2024-01-07T02:48:19;30.6;;;28.1;;
64018;SDS011;66942;52.138;5.216;2024-01-07T02:49:55;31.5;;;28.8;;
64018;SDS011;66942;52.138;5.216;2024-01-07T02:51:32;30.4;;;27.8;;
64018;SDS011;66942;52.138;5.216;2024-01-07T02:53:08;34.1;;;31.1;;
64018;SDS011;66942;52.138;5.216;2024-01-07T02:56:21;32.21;;;29.4;;
64018;SDS011;66942;52.138;5.216;2024-01-07T02:57:57;29.9;;;27.3;;
64018;SDS011;66942;52.138;5.216;2024-01-07T02:59:33;29.1;;;26.7;;
64018;SDS011;66942;52.138;5.216;2024-01-07T03:02:47;28.9;;;26.5;;
64018;SDS011;66942;52.138;5.216;2024-01-07T03:04:24;31.4;;;28.5;;
64018;SDS011;66942;52.138;5.216;2024-01-07T03:06:00;29.5;;;27.0;;
64018;SDS011;66942;52.138;5.216;2024-01-07T03:09:14;29.6;;;27.1;;
64018;SDS011;66942;52.138;5.216;2024-01-07T03:10:50;29.6;;;27.1;;
64018;SDS011;66942;52.138;5.216;2024-01-07T03:12:26;28.2;;;25.8;;
64018;SDS011;66942;52.138;5.216;2024-01-07T03:14:02;28.4;;;26.1;;
64018;SDS011;66942;52.138;5.216;2024-01-07T03:17:15;30.3;;;27.7;;
64018;SDS011;66942;52.138;5.216;2024-01-07T03:18:51;28.3;;;26.0;;
64018;SDS011;66942;52.138;5.216;2024-01-07T03:20:28;28.1;;;25.8;;
64018;SDS011;66942;52.138;5.216;2024-01-07T03:23:40;27.8;;;25.5;;
64018;SDS011;66942;52.138;5.216;2024-01-07T03:25:16;25.6;;;23.5;;
64018;SDS011;66942;52.138;5.216;2024-01-07T03:26:52;27.2;;;25.1;;
64018;SDS011;66942;52.138;5.216;2024-01-07T03:30:05;28.3;;;25.9;;
64018;SDS011;66942;52.138;5.216;2024-01-07T03:31:42;26.7;;;24.5;;
64018;SDS011;66942;52.138;5.216;2024-01-07T03:33:18;29.4;;;26.9;;
64018;SDS011;66942;52.138;5.216;2024-01-07T03:34:54;28.3;;;26.0;;
64018;SDS011;66942;52.138;5.216;2024-01-07T03:38:06;28.9;;;26.5;;
64018;SDS011;66942;52.138;5.216;2024-01-07T03:39:43;28.8;;;26.4;;
64018;SDS011;66942;52.138;5.216;2024-01-07T03:41:20;27.9;;;25.6;;
64018;SDS011;66942;52.138;5.216;2024-01-07T03:44:33;29.5;;;27.0;;
64018;SDS011;66942;52.138;5.216;2024-01-07T03:46:09;28.6;;;26.3;;
64018;SDS011;66942;52.138;5.216;2024-01-07T03:47:45;26.7;;;24.6;;
64018;SDS011;66942;52.138;5.216;2024-01-07T03:50:57;28.0;;;25.7;;
64018;SDS011;66942;52.138;5.216;2024-01-07T03:52:33;28.6;;;26.3;;
64018;SDS011;66942;52.138;5.216;2024-01-07T03:54:09;28.5;;;26.3;;
64018;SDS011;66942;52.138;5.216;2024-01-07T03:57:22;28.5;;;26.3;;
64018;SDS011;66942;52.138;5.216;2024-01-07T03:58:58;29.4;;;26.9;;
64018;SDS011;66942;52.138;5.216;2024-01-07T04:00:34;27.9;;;25.6;;
64018;SDS011;66942;52.138;5.216;2024-01-07T04:02:10;28.1;;;25.9;;
64018;SDS011;66942;52.138;5.216;2024-01-07T04:05:25;29.9;;;27.5;;
64018;SDS011;66942;52.138;5.216;2024-01-07T04:07:01;29.0;;;26.6;;
64018;SDS011;66942;52.138;5.216;2024-01-07T04:08:39;31.7;;;28.9;;
64018;SDS011;66942;52.138;5.216;2024-01-07T04:11:52;31.0;;;28.3;;
64018;SDS011;66942;52.138;5.216;2024-01-07T04:13:28;33.6;;;30.5;;
64018;SDS011;66942;52.138;5.216;2024-01-07T04:15:04;34.21;;;31.0;;
64018;SDS011;66942;52.138;5.216;2024-01-07T04:18:17;35.0;;;31.6;;
64018;SDS011;66942;52.138;5.216;2024-01-07T04:19:54;35.21;;;32.1;;
64018;SDS011;66942;52.138;5.216;2024-01-07T04:21:30;36.71;;;33.3;;
64018;SDS011;66942;52.138;5.216;2024-01-07T04:23:07;34.5;;;31.1;;
64018;SDS011;66942;52.138;5.216;2024-01-07T04:26:20;36.5;;;33.0;;
64018;SDS011;66942;52.138;5.216;2024-01-07T04:27:56;37.71;;;34.21;;
64018;SDS011;66942;52.138;5.216;2024-01-07T04:29:32;34.0;;;30.8;;
64018;SDS011;66942;52.138;5.216;2024-01-07T04:32:45;35.6;;;32.3;;
64018;SDS011;66942;52.138;5.216;2024-01-07T04:34:21;34.71;;;31.6;;
64018;SDS011;66942;52.138;5.216;2024-01-07T04:35:57;34.1;;;31.1;;
64018;SDS011;66942;52.138;5.216;2024-01-07T04:39:11;34.21;;;31.2;;
64018;SDS011;66942;52.138;5.216;2024-01-07T04:40:48;35.21;;;32.0;;
64018;SDS011;66942;52.138;5.216;2024-01-07T04:42:24;34.0;;;31.0;;
64018;SDS011;66942;52.138;5.216;2024-01-07T04:44:00;33.9;;;30.9;;
64018;SDS011;66942;52.138;5.216;2024-01-07T04:47:32;31.3;;;28.6;;
64018;SDS011;66942;52.138;5.216;2024-01-07T04:49:09;31.6;;;28.9;;
64018;SDS011;66942;52.138;5.216;2024-01-07T04:50:49;29.7;;;27.2;;
64018;SDS011;66942;52.138;5.216;2024-01-07T04:52:25;29.2;;;26.8;;
64018;SDS011;66942;52.138;5.216;2024-01-07T04:55:39;29.9;;;27.4;;
64018;SDS011;66942;52.138;5.216;2024-01-07T04:57:15;29.9;;;27.4;;
64018;SDS011;66942;52.138;5.216;2024-01-07T04:58:51;29.2;;;26.7;;
64018;SDS011;66942;52.138;5.216;2024-01-07T05:02:03;29.4;;;26.9;;
64018;SDS011;66942;52.138;5.216;2024-01-07T05:03:40;27.6;;;25.4;;
64018;SDS011;66942;52.138;5.216;2024-01-07T05:05:17;28.1;;;25.8;;
64018;SDS011;66942;52.138;5.216;2024-01-07T05:08:29;28.4;;;26.1;;
64018;SDS011;66942;52.138;5.216;2024-01-07T05:10:05;25.4;;;23.2;;
64018;SDS011;66942;52.138;5.216;2024-01-07T05:11:43;24.9;;;22.9;;
64018;SDS011;66942;52.138;5.216;2024-01-07T05:13:19;24.2;;;22.2;;
64018;SDS011;66942;52.138;5.216;2024-01-07T05:16:31;24.0;;;22.2;;
64018;SDS011;66942;52.138;5.216;2024-01-07T05:18:08;24.8;;;22.7;;
64018;SDS011;66942;52.138;5.216;2024-01-07T05:19:44;25.8;;;23.7;;
64018;SDS011;66942;52.138;5.216;2024-01-07T05:22:56;24.2;;;22.3;;
64018;SDS011;66942;52.138;5.216;2024-01-07T05:24:36;22.7;;;20.9;;
64018;SDS011;66942;52.138;5.216;2024-01-07T05:26:12;23.0;;;21.1;;
64018;SDS011;66942;52.138;5.216;2024-01-07T05:29:24;24.2;;;22.3;;
64018;SDS011;66942;52.138;5.216;2024-01-07T05:31:00;24.5;;;22.6;;
64018;SDS011;66942;52.138;5.216;2024-01-07T05:32:37;24.0;;;22.1;;
64018;SDS011;66942;52.138;5.216;2024-01-07T05:34:13;23.0;;;21.1;;
64018;SDS011;66942;52.138;5.216;2024-01-07T05:37:25;23.8;;;21.9;;
64018;SDS011;66942;52.138;5.216;2024-01-07T05:39:01;24.0;;;22.0;;
64018;SDS011;66942;52.138;5.216;2024-01-07T05:40:38;23.4;;;21.6;;
64018;SDS011;66942;52.138;5.216;2024-01-07T05:43:50;23.9;;;22.0;;
64018;SDS011;66942;52.138;5.216;2024-01-07T05:45:27;24.5;;;22.5;;
64018;SDS011;66942;52.138;5.216;2024-01-07T05:47:03;25.2;;;23.2;;
64018;SDS011;66942;52.138;5.216;2024-01-07T05:50:17;24.3;;;22.5;;
64018;SDS011;66942;52.138;5.216;2024-01-07T05:51:53;23.3;;;21.6;;
64018;SDS011;66942;52.138;5.216;2024-01-07T05:53:29;25.1;;;23.1;;
64018;SDS011;66942;52.138;5.216;2024-01-07T05:55:06;24.5;;;22.5;;
64018;SDS011;66942;52.138;5.216;2024-01-07T05:58:22;22.4;;;20.6;;
64018;SDS011;66942;52.138;5.216;2024-01-07T05:59:58;24.2;;;22.4;;
64018;SDS011;66942;52.138;5.216;2024-01-07T06:01:35;24.5;;;22.6;;
64018;SDS011;66942;52.138;5.216;2024-01-07T06:04:47;22.9;;;21.2;;
64018;SDS011;66942;52.138;5.216;2024-01-07T06:06:24;24.9;;;22.9;;
64018;SDS011;66942;52.138;5.216;2024-01-07T06:08:00;24.0;;;22.1;;
64018;SDS011;66942;52.138;5.216;2024-01-07T06:11:13;28.3;;;25.9;;
64018;SDS011;66942;52.138;5.216;2024-01-07T06:12:49;26.2;;;24.0;;
64018;SDS011;66942;52.138;5.216;2024-01-07T06:14:25;26.5;;;24.2;;
64018;SDS011;66942;52.138;5.216;2024-01-07T06:16:01;28.1;;;25.8;;
64018;SDS011;66942;52.138;5.216;2024-01-07T06:19:13;26.5;;;24.3;;
64018;SDS011;66942;52.138;5.216;2024-01-07T06:20:52;27.5;;;25.2;;
64018;SDS011;66942;52.138;5.216;2024-01-07T06:22:28;27.1;;;24.9;;
64018;SDS011;66942;52.138;5.216;2024-01-07T06:25:43;25.8;;;23.8;;
64018;SDS011;66942;52.138;5.216;2024-01-07T06:27:20;25.2;;;23.1;;
64018;SDS011;66942;52.138;5.216;2024-01-07T06:28:56;24.9;;;22.8;;
64018;SDS011;66942;52.138;5.216;2024-01-07T06:32:11;23.5;;;21.6;;
64018;SDS011;66942;52.138;5.216;2024-01-07T06:33:49;23.4;;;21.6;;
64018;SDS011;66942;52.138;5.216;2024-01-07T06:35:25;23.9;;;22.0;;
64018;SDS011;66942;52.138;5.216;2024-01-07T06:37:01;23.4;;;21.6;;
64018;SDS011;66942;52.138;5.216;2024-01-07T06:40:15;22.5;;;20.7;;
64018;SDS011;66942;52.138;5.216;2024-01-07T06:41:51;24.6;;;22.7;;
64018;SDS011;66942;52.138;5.216;2024-01-07T06:43:27;22.7;;;21.0;;
64018;SDS011;66942;52.138;5.216;2024-01-07T06:46:41;21.5;;;19.91;;
64018;SDS011;66942;52.138;5.216;2024-01-07T06:48:17;21.6;;;19.91;;
64018;SDS011;66942;52.138;5.216;2024-01-07T06:49:53;22.8;;;21.1;;
64018;SDS011;66942;52.138;5.216;2024-01-07T06:53:07;21.0;;;19.5;;
64018;SDS011;66942;52.138;5.216;2024-01-07T06:54:46;21.4;;;19.7;;
64018;SDS011;66942;52.138;5.216;2024-01-07T06:56:22;20.6;;;19.11;;
64018;SDS011;66942;52.138;5.216;2024-01-07T06:57:58;20.7;;;19.11;;
64018;SDS011;66942;52.138;5.216;2024-01-07T07:01:10;21.3;;;19.61;;
64018;SDS011;66942;52.138;5.216;2024-01-07T07:02:46;19.2;;;17.8;;
64018;SDS011;66942;52.138;5.216;2024-01-07T07:04:23;20.0;;;18.5;;
64018;SDS011;66942;52.138;5.216;2024-01-07T07:07:36;20.41;;;18.91;;
64018;SDS011;66942;52.138;5.216;2024-01-07T07:09:13;20.6;;;19.0;;
64018;SDS011;66942;52.138;5.216;2024-01-07T07:10:49;20.8;;;19.3;;
64018;SDS011;66942;52.138;5.216;2024-01-07T07:14:01;19.8;;;18.3;;
64018;SDS011;66942;52.138;5.216;2024-01-07T07:15:37;20.6;;;19.0;;
64018;SDS011;66942;52.138;5.216;2024-01-07T07:17:13;22.1;;;20.5;;
64018;SDS011;66942;52.138;5.216;2024-01-07T07:18:50;20.41;;;19.11;;
64018;SDS011;66942;52.138;5.216;2024-01-07T07:22:03;22.2;;;20.3;;
64018;SDS011;66942;52.138;5.216;2024-01-07T07:23:40;20.8;;;19.3;;
64018;SDS011;66942;52.138;5.216;2024-01-07T07:25:16;21.2;;;19.61;;
64018;SDS011;66942;52.138;5.216;2024-01-07T07:28:28;20.3;;;18.8;;
64018;SDS011;66942;52.138;5.216;2024-01-07T07:30:05;20.7;;;19.11;;
64018;SDS011;66942;52.138;5.216;2024-01-07T07:31:42;20.9;;;19.3;;
64018;SDS011;66942;52.138;5.216;2024-01-07T07:34:55;20.6;;;19.0;;
64018;SDS011;66942;52.138;5.216;2024-01-07T07:36:31;19.61;;;18.11;;
64018;SDS011;66942;52.138;5.216;2024-01-07T07:38:08;19.91;;;18.41;;
64018;SDS011;66942;52.138;5.216;2024-01-07T07:39:47;19.91;;;18.41;;
64018;SDS011;66942;52.138;5.216;2024-01-07T07:42:59;18.61;;;17.2;;
64018;SDS011;66942;52.138;5.216;2024-01-07T07:44:35;19.0;;;17.61;;
64018;SDS011;66942;52.138;5.216;2024-01-07T07:46:11;19.2;;;17.7;;
64018;SDS011;66942;52.138;5.216;2024-01-07T07:49:25;18.11;;;16.8;;
64018;SDS011;66942;52.138;5.216;2024-01-07T07:51:01;19.0;;;17.5;;
64018;SDS011;66942;52.138;5.216;2024-01-07T07:52:37;18.3;;;16.9;;
64018;SDS011;66942;52.138;5.216;2024-01-07T07:55:49;18.8;;;17.3;;
64018;SDS011;66942;52.138;5.216;2024-01-07T07:57:25;18.2;;;16.8;;
64018;SDS011;66942;52.138;5.216;2024-01-07T07:59:01;19.61;;;18.0;;
64018;SDS011;66942;52.138;5.216;2024-01-07T08:00:38;18.41;;;17.11;;
64018;SDS011;66942;52.138;5.216;2024-01-07T08:03:51;19.0;;;17.5;;
64018;SDS011;66942;52.138;5.216;2024-01-07T08:05:27;18.0;;;16.7;;
64018;SDS011;66942;52.138;5.216;2024-01-07T08:07:03;18.11;;;16.7;;
64018;SDS011;66942;52.138;5.216;2024-01-07T08:10:15;19.41;;;18.11;;
64018;SDS011;66942;52.138;5.216;2024-01-07T08:11:52;19.5;;;18.11;;
64018;SDS011;66942;52.138;5.216;2024-01-07T08:13:32;19.2;;;17.7;;
64018;SDS011;66942;52.138;5.216;2024-01-07T08:16:45;19.61;;;18.2;;
64018;SDS011;66942;52.138;5.216;2024-01-07T08:18:22;20.2;;;18.7;;
64018;SDS011;66942;52.138;5.216;2024-01-07T08:19:58;18.41;;;17.11;;
64018;SDS011;66942;52.138;5.216;2024-01-07T08:21:34;18.41;;;17.11;;
64018;SDS011;66942;52.138;5.216;2024-01-07T08:24:46;20.0;;;18.5;;
64018;SDS011;66942;52.138;5.216;2024-01-07T08:26:22;19.41;;;18.0;;
64018;SDS011;66942;52.138;5.216;2024-01-07T08:27:59;21.2;;;19.5;;
64018;SDS011;66942;52.138;5.216;2024-01-07T08:31:12;19.3;;;17.91;;
64018;SDS011;66942;52.138;5.216;2024-01-07T08:32:48;18.91;;;17.41;;
64018;SDS011;66942;52.138;5.216;2024-01-07T08:34:25;18.5;;;17.2;;
64018;SDS011;66942;52.138;5.216;2024-01-07T08:37:37;19.91;;;18.41;;
64018;SDS011;66942;52.138;5.216;2024-01-07T08:39:14;18.61;;;17.3;;
64018;SDS011;66942;52.138;5.216;2024-01-07T08:40:51;19.5;;;18.11;;
64018;SDS011;66942;52.138;5.216;2024-01-07T08:42:27;17.91;;;16.61;;
64018;SDS011;66942;52.138;5.216;2024-01-07T08:45:42;18.11;;;16.8;;
64018;SDS011;66942;52.138;5.216;2024-01-07T08:47:18;18.0;;;16.7;;
64018;SDS011;66942;52.138;5.216;2024-01-07T08:48:54;17.11;;;15.9;;
64018;SDS011;66942;52.138;5.216;2024-01-07T08:52:06;17.61;;;16.4;;
64018;SDS011;66942;52.138;5.216;2024-01-07T08:53:43;16.7;;;15.6;;
64018;SDS011;66942;52.138;5.216;2024-01-07T08:55:19;16.8;;;15.6;;
64018;SDS011;66942;52.138;5.216;2024-01-07T08:58:34;17.2;;;16.0;;
64018;SDS011;66942;52.138;5.216;2024-01-07T09:00:10;15.4;;;14.3;;
64018;SDS011;66942;52.138;5.216;2024-01-07T09:01:47;14.6;;;13.6;;
64018;SDS011;66942;52.138;5.216;2024-01-07T09:03:23;15.5;;;14.4;;
64018;SDS011;66942;52.138;5.216;2024-01-07T09:06:36;14.4;;;13.5;;
64018;SDS011;66942;52.138;5.216;2024-01-07T09:08:13;15.6;;;14.5;;
64018;SDS011;66942;52.138;5.216;2024-01-07T09:09:49;14.4;;;13.4;;
64018;SDS011;66942;52.138;5.216;2024-01-07T09:13:02;15.5;;;14.4;;
64018;SDS011;66942;52.138;5.216;2024-01-07T09:14:38;15.0;;;13.9;;
64018;SDS011;66942;52.138;5.216;2024-01-07T09:16:14;15.9;;;14.8;;
64018;SDS011;66942;52.138;5.216;2024-01-07T09:19:27;15.7;;;14.6;;
64018;SDS011;66942;52.138;5.216;2024-01-07T09:21:03;15.7;;;14.6;;
64018;SDS011;66942;52.138;5.216;2024-01-07T09:22:40;15.3;;;14.2;;
64018;SDS011;66942;52.138;5.216;2024-01-07T09:24:16;16.11;;;14.9;;
64018;SDS011;66942;52.138;5.216;2024-01-07T09:27:28;16.61;;;15.3;;
64018;SDS011;66942;52.138;5.216;2024-01-07T09:29:04;16.4;;;15.1;;
64018;SDS011;66942;52.138;5.216;2024-01-07T09:30:44;16.5;;;15.2;;
64018;SDS011;66942;52.138;5.216;2024-01-07T09:33:56;16.9;;;15.6;;
64018;SDS011;66942;52.138;5.216;2024-01-07T09:35:32;16.4;;;15.3;;
64018;SDS011;66942;52.138;5.216;2024-01-07T09:37:08;18.5;;;17.11;;
64018;SDS011;66942;52.138;5.216;2024-01-07T09:40:20;31.5;;;28.4;;
64018;SDS011;66942;52.138;5.216;2024-01-07T09:41:59;25.5;;;23.1;;
64018;SDS011;66942;52.138;5.216;2024-01-07T09:43:36;32.8;;;29.2;;
64018;SDS011;66942;52.138;5.216;2024-01-07T09:45:13;17.7;;;16.3;;
64018;SDS011;66942;52.138;5.216;2024-01-07T09:48:27;18.5;;;16.9;;
64018;SDS011;66942;52.138;5.216;2024-01-07T09:50:03;18.91;;;17.3;;
64018;SDS011;66942;52.138;5.216;2024-01-07T09:51:40;19.11;;;17.5;;
64018;SDS011;66942;52.138;5.216;2024-01-07T09:55:03;14.8;;;13.5;;
64018;SDS011;66942;52.138;5.216;2024-01-07T09:56:46;14.2;;;13.1;;
64018;SDS011;66942;52.138;5.216;2024-01-07T09:58:29;12.7;;;11.7;;
64018;SDS011;66942;52.138;5.216;2024-01-07T10:00:07;11.9;;;11.1;;
64018;SDS011;66942;52.138;5.216;2024-01-07T10:03:23;11.2;;;10.4;;
64018;SDS011;66942;52.138;5.216;2024-01-07T10:04:59;13.2;;;12.2;;
64018;SDS011;66942;52.138;5.216;2024-01-07T10:06:35;12.8;;;11.8;;
64018;SDS011;66942;52.138;5.216;2024-01-07T10:09:47;11.2;;;10.3;;
64018;SDS011;66942;52.138;5.216;2024-01-07T10:11:23;10.9;;;10.0;;
64018;SDS011;66942;52.138;5.216;2024-01-07T10:13:00;11.9;;;11.0;;
64018;SDS011;66942;52.138;5.216;2024-01-07T10:14:40;14.4;;;13.4;;
64018;SDS011;66942;52.138;5.216;2024-01-07T10:17:54;12.4;;;11.4;;
64018;SDS011;66942;52.138;5.216;2024-01-07T10:19:31;12.7;;;11.5;;
64018;SDS011;66942;52.138;5.216;2024-01-07T10:21:11;12.9;;;11.7;;
64018;SDS011;66942;52.138;5.216;2024-01-07T10:24:26;10.0;;;9.1;;
64018;SDS011;66942;52.138;5.216;2024-01-07T10:26:11;9.6;;;8.9;;
64018;SDS011;66942;52.138;5.216;2024-01-07T10:27:47;9.0;;;8.4;;
64018;SDS011;66942;52.138;5.216;2024-01-07T10:29:24;9.21;;;8.4;;
64018;SDS011;66942;52.138;5.216;2024-01-07T10:32:36;10.4;;;9.4;;
64018;SDS011;66942;52.138;5.216;2024-01-07T10:34:13;9.5;;;8.6;;
64018;SDS011;66942;52.138;5.216;2024-01-07T10:35:51;7.6;;;7.1;;
64018;SDS011;66942;52.138;5.216;2024-01-07T10:37:36;8.71;;;8.0;;
64018;SDS011;66942;52.138;5.216;2024-01-07T10:40:50;8.1;;;7.5;;
64018;SDS011;66942;52.138;5.216;2024-01-07T10:42:31;7.5;;;7.0;;
64018;SDS011;66942;52.138;5.216;2024-01-07T10:44:08;7.1;;;6.6;;
64018;SDS011;66942;52.138;5.216;2024-01-07T10:47:23;6.6;;;6.2;;
64018;SDS011;66942;52.138;5.216;2024-01-07T10:49:12;6.4;;;5.9;;
64018;SDS011;66942;52.138;5.216;2024-01-07T10:50:56;7.2;;;6.7;;
64018;SDS011;66942;52.138;5.216;2024-01-07T10:52:35;6.6;;;6.1;;
64018;SDS011;66942;52.138;5.216;2024-01-07T10:54:13;6.6;;;6.1;;
64018;SDS011;66942;52.138;5.216;2024-01-07T10:57:43;6.8;;;6.3;;
64018;SDS011;66942;52.138;5.216;2024-01-07T10:59:22;6.8;;;6.2;;
64018;SDS011;66942;52.138;5.216;2024-01-07T11:00:59;7.9;;;7.4;;
64018;SDS011;66942;52.138;5.216;2024-01-07T11:02:37;7.0;;;6.5;;
64018;SDS011;66942;52.138;5.216;2024-01-07T11:06:20;6.1;;;5.6;;
64018;SDS011;66942;52.138;5.216;2024-01-07T11:08:06;6.1;;;5.7;;
64018;SDS011;66942;52.138;5.216;2024-01-07T11:10:00;6.0;;;5.6;;
64018;SDS011;66942;52.138;5.216;2024-01-07T11:11:42;7.6;;;7.1;;
64018;SDS011;66942;52.138;5.216;2024-01-07T11:13:37;6.3;;;5.8;;
64018;SDS011;66942;52.138;5.216;2024-01-07T11:15:21;7.2;;;6.7;;
64018;SDS011;66942;52.138;5.216;2024-01-07T11:17:45;7.2;;;6.7;;
64018;SDS011;66942;52.138;5.216;2024-01-07T11:19:21;9.5;;;8.9;;
64018;SDS011;66942;52.138;5.216;2024-01-07T11:22:35;8.6;;;8.0;;
64018;SDS011;66942;52.138;5.216;2024-01-07T11:24:18;4.91;;;4.61;;
64018;SDS011;66942;52.138;5.216;2024-01-07T11:26:13;9.31;;;8.6;;
64018;SDS011;66942;52.138;5.216;2024-01-07T11:27:50;7.7;;;7.1;;
64018;SDS011;66942;52.138;5.216;2024-01-07T11:31:02;9.0;;;8.31;;
64018;SDS011;66942;52.138;5.216;2024-01-07T11:32:39;9.0;;;8.31;;
64018;SDS011;66942;52.138;5.216;2024-01-07T11:34:51;5.9;;;5.5;;
64018;SDS011;66942;52.138;5.216;2024-01-07T11:36:27;6.4;;;6.0;;
64018;SDS011;66942;52.138;5.216;2024-01-07T11:39:41;9.9;;;9.0;;
64018;SDS011;66942;52.138;5.216;2024-01-07T11:41:17;12.3;;;11.3;;
64018;SDS011;66942;52.138;5.216;2024-01-07T11:42:56;5.0;;;4.7;;
64018;SDS011;66942;52.138;5.216;2024-01-07T11:44:34;5.2;;;4.7;;
64018;SDS011;66942;52.138;5.216;2024-01-07T11:47:46;14.4;;;13.0;;
64018;SDS011;66942;52.138;5.216;2024-01-07T11:49:22;11.7;;;10.6;;
64018;SDS011;66942;52.138;5.216;2024-01-07T11:50:58;6.6;;;6.0;;
64018;SDS011;66942;52.138;5.216;2024-01-07T11:54:10;7.6;;;7.0;;
64018;SDS011;66942;52.138;5.216;2024-01-07T11:55:48;4.91;;;4.61;;
64018;SDS011;66942;52.138;5.216;2024-01-07T11:57:25;7.0;;;6.4;;
64018;SDS011;66942;52.138;5.216;2024-01-07T12:00:37;6.1;;;5.6;;
64018;SDS011;66942;52.138;5.216;2024-01-07T12:02:13;6.1;;;5.6;;
64018;SDS011;66942;52.138;5.216;2024-01-07T12:03:49;5.8;;;5.4;;
64018;SDS011;66942;52.138;5.216;2024-01-07T12:05:26;13.7;;;12.4;;
64018;SDS011;66942;52.138;5.216;2024-01-07T12:08:40;5.6;;;5.2;;
64018;SDS011;66942;52.138;5.216;2024-01-07T12:10:17;4.3;;;4.0;;
64018;SDS011;66942;52.138;5.216;2024-01-07T12:11:54;5.5;;;5.0;;
64018;SDS011;66942;52.138;5.216;2024-01-07T12:15:08;5.5;;;5.11;;
64018;SDS011;66942;52.138;5.216;2024-01-07T12:16:46;5.3;;;4.8;;
64018;SDS011;66942;52.138;5.216;2024-01-07T12:18:22;4.91;;;4.5;;
64018;SDS011;66942;52.138;5.216;2024-01-07T12:21:36;3.4;;;3.2;;
64018;SDS011;66942;52.138;5.216;2024-01-07T12:23:13;6.0;;;5.5;;
64018;SDS011;66942;52.138;5.216;2024-01-07T12:24:59;5.2;;;4.8;;
64018;SDS011;66942;52.138;5.216;2024-01-07T12:26:36;3.6;;;3.4;;
64018;SDS011;66942;52.138;5.216;2024-01-07T12:29:54;3.7;;;3.4;;
64018;SDS011;66942;52.138;5.216;2024-01-07T12:31:30;4.0;;;3.7;;
64018;SDS011;66942;52.138;5.216;2024-01-07T12:33:07;3.7;;;3.5;;
64018;SDS011;66942;52.138;5.216;2024-01-07T12:34:45;3.6;;;3.3;;